sensor_id;sensor_type;location;lat;lon;timestamp;P1;durP1;ratioP1;P2;durP2;ratioP2
38130;SDS011;23947;51.894;4.622;2022-07-29T00:01:59;3.38;;;0.50;;
38130;SDS011;23947;51.894;4.622;2022-07-29T00:04:25;4.55;;;0.70;;
38130;SDS011;23947;51.894;4.622;2022-07-29T00:06:50;2.70;;;0.40;;
38130;SDS011;23947;51.894;4.622;2022-07-29T00:09:16;6.25;;;0.73;;
38130;SDS011;23947;51.894;4.622;2022-07-29T00:11:42;6.57;;;0.43;;
38130;SDS011;23947;51.894;4.622;2022-07-29T00:14:08;4.53;;;0.70;;
38130;SDS011;23947;51.894;4.622;2022-07-29T00:16:34;10.00;;;0.57;;
38130;SDS011;23947;51.894;4.622;2022-07-29T00:19:00;3.17;;;0.40;;
38130;SDS011;23947;51.894;4.622;2022-07-29T00:21:26;5.22;;;0.70;;
38130;SDS011;23947;51.894;4.622;2022-07-29T00:23:51;2.88;;;0.50;;
38130;SDS011;23947;51.894;4.622;2022-07-29T00:26:17;4.75;;;0.50;;
38130;SDS011;23947;51.894;4.622;2022-07-29T00:28:43;4.70;;;0.68;;
38130;SDS011;23947;51.894;4.622;2022-07-29T00:31:08;5.07;;;0.50;;
38130;SDS011;23947;51.894;4.622;2022-07-29T00:33:34;5.65;;;0.70;;
38130;SDS011;23947;51.894;4.622;2022-07-29T00:36:00;6.13;;;0.60;;
38130;SDS011;23947;51.894;4.622;2022-07-29T00:38:25;4.13;;;0.50;;
38130;SDS011;23947;51.894;4.622;2022-07-29T00:40:54;3.53;;;0.60;;
38130;SDS011;23947;51.894;4.622;2022-07-29T00:43:19;6.43;;;0.60;;
38130;SDS011;23947;51.894;4.622;2022-07-29T00:45:45;2.60;;;0.40;;
38130;SDS011;23947;51.894;4.622;2022-07-29T00:48:11;4.43;;;0.50;;
38130;SDS011;23947;51.894;4.622;2022-07-29T00:50:37;3.92;;;0.70;;
38130;SDS011;23947;51.894;4.622;2022-07-29T00:53:03;4.30;;;0.60;;
38130;SDS011;23947;51.894;4.622;2022-07-29T00:55:31;6.88;;;0.50;;
38130;SDS011;23947;51.894;4.622;2022-07-29T00:57:56;2.33;;;0.40;;
38130;SDS011;23947;51.894;4.622;2022-07-29T01:00:24;8.02;;;0.57;;
38130;SDS011;23947;51.894;4.622;2022-07-29T01:02:51;7.22;;;0.50;;
38130;SDS011;23947;51.894;4.622;2022-07-29T01:05:18;3.30;;;0.50;;
38130;SDS011;23947;51.894;4.622;2022-07-29T01:07:45;3.35;;;0.40;;
38130;SDS011;23947;51.894;4.622;2022-07-29T01:10:13;3.25;;;0.43;;
38130;SDS011;23947;51.894;4.622;2022-07-29T01:12:40;2.40;;;0.50;;
38130;SDS011;23947;51.894;4.622;2022-07-29T01:15:09;4.13;;;0.60;;
38130;SDS011;23947;51.894;4.622;2022-07-29T01:20:17;6.03;;;0.70;;
38130;SDS011;23947;51.894;4.622;2022-07-29T01:31:03;8.00;;;0.80;;
38130;SDS011;23947;51.894;4.622;2022-07-29T01:33:30;2.63;;;0.50;;
38130;SDS011;23947;51.894;4.622;2022-07-29T01:36:14;3.50;;;0.60;;
38130;SDS011;23947;51.894;4.622;2022-07-29T01:39:11;5.55;;;0.60;;
38130;SDS011;23947;51.894;4.622;2022-07-29T01:41:45;4.45;;;0.50;;
38130;SDS011;23947;51.894;4.622;2022-07-29T01:44:20;3.30;;;0.80;;
38130;SDS011;23947;51.894;4.622;2022-07-29T01:46:52;3.13;;;0.50;;
38130;SDS011;23947;51.894;4.622;2022-07-29T01:49:27;5.10;;;0.57;;
38130;SDS011;23947;51.894;4.622;2022-07-29T01:51:57;3.58;;;0.75;;
38130;SDS011;23947;51.894;4.622;2022-07-29T01:54:32;7.78;;;0.60;;
38130;SDS011;23947;51.894;4.622;2022-07-29T01:57:04;10.05;;;0.90;;
38130;SDS011;23947;51.894;4.622;2022-07-29T01:59:33;10.65;;;0.65;;
38130;SDS011;23947;51.894;4.622;2022-07-29T02:02:01;8.60;;;0.60;;
38130;SDS011;23947;51.894;4.622;2022-07-29T02:04:27;3.58;;;0.70;;
38130;SDS011;23947;51.894;4.622;2022-07-29T02:06:54;3.88;;;0.70;;
38130;SDS011;23947;51.894;4.622;2022-07-29T02:09:25;3.78;;;0.63;;
38130;SDS011;23947;51.894;4.622;2022-07-29T02:11:52;6.68;;;0.75;;
38130;SDS011;23947;51.894;4.622;2022-07-29T02:14:20;5.88;;;1.02;;
38130;SDS011;23947;51.894;4.622;2022-07-29T02:16:48;7.03;;;0.80;;
38130;SDS011;23947;51.894;4.622;2022-07-29T02:19:17;3.72;;;0.60;;
38130;SDS011;23947;51.894;4.622;2022-07-29T02:21:44;4.03;;;0.65;;
38130;SDS011;23947;51.894;4.622;2022-07-29T02:24:11;5.00;;;0.52;;
38130;SDS011;23947;51.894;4.622;2022-07-29T02:26:39;3.72;;;0.70;;
38130;SDS011;23947;51.894;4.622;2022-07-29T02:29:09;5.50;;;0.60;;
38130;SDS011;23947;51.894;4.622;2022-07-29T02:31:37;5.47;;;0.73;;
38130;SDS011;23947;51.894;4.622;2022-07-29T02:34:05;4.43;;;0.65;;
38130;SDS011;23947;51.894;4.622;2022-07-29T02:36:33;4.15;;;0.60;;
38130;SDS011;23947;51.894;4.622;2022-07-29T02:39:00;4.22;;;0.63;;
38130;SDS011;23947;51.894;4.622;2022-07-29T02:44:10;3.53;;;0.70;;
38130;SDS011;23947;51.894;4.622;2022-07-29T02:46:37;8.18;;;0.70;;
38130;SDS011;23947;51.894;4.622;2022-07-29T02:57:19;5.13;;;0.73;;
38130;SDS011;23947;51.894;4.622;2022-07-29T02:59:48;5.85;;;0.70;;
38130;SDS011;23947;51.894;4.622;2022-07-29T03:02:16;6.57;;;0.70;;
38130;SDS011;23947;51.894;4.622;2022-07-29T03:04:43;6.07;;;0.60;;
38130;SDS011;23947;51.894;4.622;2022-07-29T03:07:11;4.97;;;1.00;;
38130;SDS011;23947;51.894;4.622;2022-07-29T03:09:40;5.55;;;0.85;;
38130;SDS011;23947;51.894;4.622;2022-07-29T03:12:06;4.63;;;0.75;;
38130;SDS011;23947;51.894;4.622;2022-07-29T03:14:33;8.73;;;0.90;;
38130;SDS011;23947;51.894;4.622;2022-07-29T03:16:59;2.55;;;0.70;;
38130;SDS011;23947;51.894;4.622;2022-07-29T03:19:25;5.55;;;0.80;;
38130;SDS011;23947;51.894;4.622;2022-07-29T03:21:51;6.38;;;0.80;;
38130;SDS011;23947;51.894;4.622;2022-07-29T03:24:26;3.63;;;0.82;;
38130;SDS011;23947;51.894;4.622;2022-07-29T03:26:54;4.10;;;0.75;;
38130;SDS011;23947;51.894;4.622;2022-07-29T03:29:21;6.15;;;0.73;;
38130;SDS011;23947;51.894;4.622;2022-07-29T03:31:47;2.70;;;0.60;;
38130;SDS011;23947;51.894;4.622;2022-07-29T03:34:12;9.07;;;1.08;;
38130;SDS011;23947;51.894;4.622;2022-07-29T03:36:38;5.43;;;0.80;;
38130;SDS011;23947;51.894;4.622;2022-07-29T03:39:03;6.65;;;1.30;;
38130;SDS011;23947;51.894;4.622;2022-07-29T03:41:30;2.90;;;0.88;;
38130;SDS011;23947;51.894;4.622;2022-07-29T03:43:57;6.60;;;0.73;;
38130;SDS011;23947;51.894;4.622;2022-07-29T03:46:27;5.20;;;0.60;;
38130;SDS011;23947;51.894;4.622;2022-07-29T03:48:55;3.50;;;0.90;;
38130;SDS011;23947;51.894;4.622;2022-07-29T03:51:25;4.20;;;1.00;;
38130;SDS011;23947;51.894;4.622;2022-07-29T03:53:51;5.68;;;0.95;;
38130;SDS011;23947;51.894;4.622;2022-07-29T03:56:17;8.70;;;1.30;;
38130;SDS011;23947;51.894;4.622;2022-07-29T03:58:47;5.45;;;0.85;;
38130;SDS011;23947;51.894;4.622;2022-07-29T04:01:15;4.97;;;0.77;;
38130;SDS011;23947;51.894;4.622;2022-07-29T04:03:42;5.93;;;1.08;;
38130;SDS011;23947;51.894;4.622;2022-07-29T04:06:11;8.63;;;1.00;;
38130;SDS011;23947;51.894;4.622;2022-07-29T04:08:37;4.40;;;0.70;;
38130;SDS011;23947;51.894;4.622;2022-07-29T04:11:03;7.47;;;0.90;;
38130;SDS011;23947;51.894;4.622;2022-07-29T04:13:32;5.63;;;1.10;;
38130;SDS011;23947;51.894;4.622;2022-07-29T04:15:58;4.65;;;1.20;;
38130;SDS011;23947;51.894;4.622;2022-07-29T04:18:24;4.80;;;1.17;;
38130;SDS011;23947;51.894;4.622;2022-07-29T04:20:50;4.95;;;0.98;;
38130;SDS011;23947;51.894;4.622;2022-07-29T04:23:16;5.57;;;0.90;;
38130;SDS011;23947;51.894;4.622;2022-07-29T04:25:41;5.13;;;1.15;;
38130;SDS011;23947;51.894;4.622;2022-07-29T04:28:08;6.57;;;1.00;;
38130;SDS011;23947;51.894;4.622;2022-07-29T04:30:34;6.80;;;1.08;;
38130;SDS011;23947;51.894;4.622;2022-07-29T04:33:01;5.68;;;1.08;;
38130;SDS011;23947;51.894;4.622;2022-07-29T04:35:38;6.65;;;1.50;;
38130;SDS011;23947;51.894;4.622;2022-07-29T04:38:04;5.78;;;1.00;;
38130;SDS011;23947;51.894;4.622;2022-07-29T04:40:31;4.55;;;1.33;;
38130;SDS011;23947;51.894;4.622;2022-07-29T04:42:58;6.70;;;1.45;;
38130;SDS011;23947;51.894;4.622;2022-07-29T04:45:28;7.18;;;1.05;;
38130;SDS011;23947;51.894;4.622;2022-07-29T04:47:54;6.75;;;0.93;;
38130;SDS011;23947;51.894;4.622;2022-07-29T04:50:20;4.57;;;1.25;;
38130;SDS011;23947;51.894;4.622;2022-07-29T04:52:46;5.57;;;1.10;;
38130;SDS011;23947;51.894;4.622;2022-07-29T04:55:15;4.50;;;1.20;;
38130;SDS011;23947;51.894;4.622;2022-07-29T04:57:41;5.22;;;1.10;;
38130;SDS011;23947;51.894;4.622;2022-07-29T05:00:45;4.32;;;1.33;;
38130;SDS011;23947;51.894;4.622;2022-07-29T05:03:11;3.55;;;0.90;;
38130;SDS011;23947;51.894;4.622;2022-07-29T05:05:39;3.83;;;0.95;;
38130;SDS011;23947;51.894;4.622;2022-07-29T05:08:05;8.13;;;1.48;;
38130;SDS011;23947;51.894;4.622;2022-07-29T05:10:31;10.70;;;1.30;;
38130;SDS011;23947;51.894;4.622;2022-07-29T05:12:57;6.85;;;1.45;;
38130;SDS011;23947;51.894;4.622;2022-07-29T05:15:23;5.57;;;1.40;;
38130;SDS011;23947;51.894;4.622;2022-07-29T05:17:49;7.50;;;1.30;;
38130;SDS011;23947;51.894;4.622;2022-07-29T05:20:26;8.88;;;1.40;;
38130;SDS011;23947;51.894;4.622;2022-07-29T05:22:54;5.70;;;1.25;;
38130;SDS011;23947;51.894;4.622;2022-07-29T05:25:20;6.13;;;1.23;;
38130;SDS011;23947;51.894;4.622;2022-07-29T05:27:49;10.38;;;1.50;;
38130;SDS011;23947;51.894;4.622;2022-07-29T05:30:15;4.63;;;1.20;;
38130;SDS011;23947;51.894;4.622;2022-07-29T05:32:41;6.15;;;1.23;;
38130;SDS011;23947;51.894;4.622;2022-07-29T05:35:07;4.97;;;1.13;;
38130;SDS011;23947;51.894;4.622;2022-07-29T05:37:45;5.72;;;1.30;;
38130;SDS011;23947;51.894;4.622;2022-07-29T05:40:11;4.30;;;0.95;;
38130;SDS011;23947;51.894;4.622;2022-07-29T05:42:36;4.45;;;1.35;;
38130;SDS011;23947;51.894;4.622;2022-07-29T05:45:02;5.53;;;1.23;;
38130;SDS011;23947;51.894;4.622;2022-07-29T05:47:28;5.53;;;1.40;;
38130;SDS011;23947;51.894;4.622;2022-07-29T05:49:54;4.63;;;1.30;;
38130;SDS011;23947;51.894;4.622;2022-07-29T05:52:19;9.40;;;1.38;;
38130;SDS011;23947;51.894;4.622;2022-07-29T05:54:46;5.22;;;1.13;;
38130;SDS011;23947;51.894;4.622;2022-07-29T05:57:18;9.70;;;1.10;;
38130;SDS011;23947;51.894;4.622;2022-07-29T05:59:45;6.45;;;1.13;;
38130;SDS011;23947;51.894;4.622;2022-07-29T06:02:11;6.13;;;1.15;;
38130;SDS011;23947;51.894;4.622;2022-07-29T06:04:36;4.55;;;0.98;;
38130;SDS011;23947;51.894;4.622;2022-07-29T06:07:02;4.88;;;1.13;;
38130;SDS011;23947;51.894;4.622;2022-07-29T06:11:57;3.75;;;1.02;;
38130;SDS011;23947;51.894;4.622;2022-07-29T06:14:23;6.25;;;1.00;;
38130;SDS011;23947;51.894;4.622;2022-07-29T06:16:49;6.95;;;1.00;;
38130;SDS011;23947;51.894;4.622;2022-07-29T06:19:18;4.50;;;0.90;;
38130;SDS011;23947;51.894;4.622;2022-07-29T06:21:44;6.70;;;1.10;;
38130;SDS011;23947;51.894;4.622;2022-07-29T06:24:14;4.95;;;1.10;;
38130;SDS011;23947;51.894;4.622;2022-07-29T06:26:40;5.22;;;1.00;;
38130;SDS011;23947;51.894;4.622;2022-07-29T06:29:07;5.13;;;0.93;;
38130;SDS011;23947;51.894;4.622;2022-07-29T06:31:39;7.25;;;1.20;;
38130;SDS011;23947;51.894;4.622;2022-07-29T06:34:08;6.28;;;0.98;;
38130;SDS011;23947;51.894;4.622;2022-07-29T06:36:34;5.50;;;1.63;;
38130;SDS011;23947;51.894;4.622;2022-07-29T06:39:06;5.00;;;1.08;;
38130;SDS011;23947;51.894;4.622;2022-07-29T06:41:33;6.55;;;0.85;;
38130;SDS011;23947;51.894;4.622;2022-07-29T06:43:59;6.40;;;1.00;;
38130;SDS011;23947;51.894;4.622;2022-07-29T06:46:30;6.05;;;0.95;;
38130;SDS011;23947;51.894;4.622;2022-07-29T06:48:57;3.03;;;0.90;;
38130;SDS011;23947;51.894;4.622;2022-07-29T06:51:22;5.43;;;1.30;;
38130;SDS011;23947;51.894;4.622;2022-07-29T06:53:51;4.72;;;1.08;;
38130;SDS011;23947;51.894;4.622;2022-07-29T06:56:19;9.18;;;1.05;;
38130;SDS011;23947;51.894;4.622;2022-07-29T06:58:51;7.15;;;1.02;;
38130;SDS011;23947;51.894;4.622;2022-07-29T07:01:17;8.52;;;1.33;;
38130;SDS011;23947;51.894;4.622;2022-07-29T07:03:42;6.30;;;1.88;;
38130;SDS011;23947;51.894;4.622;2022-07-29T07:06:08;6.18;;;1.10;;
38130;SDS011;23947;51.894;4.622;2022-07-29T07:08:34;5.07;;;1.10;;
38130;SDS011;23947;51.894;4.622;2022-07-29T07:10:59;7.78;;;1.13;;
38130;SDS011;23947;51.894;4.622;2022-07-29T07:13:25;4.75;;;1.15;;
38130;SDS011;23947;51.894;4.622;2022-07-29T07:15:51;5.15;;;1.20;;
38130;SDS011;23947;51.894;4.622;2022-07-29T07:18:17;10.57;;;1.13;;
38130;SDS011;23947;51.894;4.622;2022-07-29T07:20:43;11.55;;;1.50;;
38130;SDS011;23947;51.894;4.622;2022-07-29T07:23:09;7.75;;;1.60;;
38130;SDS011;23947;51.894;4.622;2022-07-29T07:25:35;10.27;;;1.42;;
38130;SDS011;23947;51.894;4.622;2022-07-29T07:28:01;7.10;;;1.38;;
38130;SDS011;23947;51.894;4.622;2022-07-29T07:30:27;6.70;;;1.23;;
38130;SDS011;23947;51.894;4.622;2022-07-29T07:32:53;5.40;;;1.13;;
38130;SDS011;23947;51.894;4.622;2022-07-29T07:35:20;5.50;;;1.70;;
38130;SDS011;23947;51.894;4.622;2022-07-29T07:37:46;5.68;;;1.10;;
38130;SDS011;23947;51.894;4.622;2022-07-29T07:40:12;6.15;;;1.40;;
38130;SDS011;23947;51.894;4.622;2022-07-29T07:42:38;6.63;;;1.52;;
38130;SDS011;23947;51.894;4.622;2022-07-29T07:45:05;4.80;;;1.45;;
38130;SDS011;23947;51.894;4.622;2022-07-29T07:50:00;5.30;;;1.38;;
38130;SDS011;23947;51.894;4.622;2022-07-29T07:52:25;7.32;;;1.30;;
38130;SDS011;23947;51.894;4.622;2022-07-29T07:54:51;11.30;;;1.48;;
38130;SDS011;23947;51.894;4.622;2022-07-29T07:57:17;11.32;;;1.45;;
38130;SDS011;23947;51.894;4.622;2022-07-29T07:59:43;7.03;;;1.45;;
38130;SDS011;23947;51.894;4.622;2022-07-29T08:02:09;7.90;;;1.40;;
38130;SDS011;23947;51.894;4.622;2022-07-29T08:04:57;5.70;;;1.60;;
38130;SDS011;23947;51.894;4.622;2022-07-29T08:07:22;5.60;;;1.30;;
38130;SDS011;23947;51.894;4.622;2022-07-29T08:09:48;5.65;;;1.13;;
38130;SDS011;23947;51.894;4.622;2022-07-29T08:12:14;6.47;;;1.38;;
38130;SDS011;23947;51.894;4.622;2022-07-29T08:14:39;9.85;;;1.35;;
38130;SDS011;23947;51.894;4.622;2022-07-29T08:17:05;4.97;;;1.45;;
38130;SDS011;23947;51.894;4.622;2022-07-29T08:19:30;6.50;;;1.17;;
38130;SDS011;23947;51.894;4.622;2022-07-29T08:21:56;5.72;;;1.10;;
38130;SDS011;23947;51.894;4.622;2022-07-29T08:24:22;10.02;;;1.20;;
38130;SDS011;23947;51.894;4.622;2022-07-29T08:27:10;9.60;;;1.40;;
38130;SDS011;23947;51.894;4.622;2022-07-29T08:29:36;6.10;;;1.23;;
38130;SDS011;23947;51.894;4.622;2022-07-29T08:32:10;8.85;;;1.17;;
38130;SDS011;23947;51.894;4.622;2022-07-29T08:34:36;5.68;;;1.08;;
38130;SDS011;23947;51.894;4.622;2022-07-29T08:37:02;6.22;;;1.20;;
38130;SDS011;23947;51.894;4.622;2022-07-29T08:39:28;6.65;;;1.50;;
38130;SDS011;23947;51.894;4.622;2022-07-29T08:41:53;7.50;;;1.30;;
38130;SDS011;23947;51.894;4.622;2022-07-29T08:44:19;5.82;;;1.50;;
38130;SDS011;23947;51.894;4.622;2022-07-29T08:46:46;6.70;;;1.00;;
38130;SDS011;23947;51.894;4.622;2022-07-29T08:49:13;5.93;;;0.90;;
38130;SDS011;23947;51.894;4.622;2022-07-29T08:51:39;5.00;;;1.00;;
38130;SDS011;23947;51.894;4.622;2022-07-29T08:54:06;6.35;;;1.00;;
38130;SDS011;23947;51.894;4.622;2022-07-29T08:56:33;7.33;;;1.17;;
38130;SDS011;23947;51.894;4.622;2022-07-29T08:59:02;6.72;;;1.30;;
38130;SDS011;23947;51.894;4.622;2022-07-29T09:01:30;6.07;;;1.08;;
38130;SDS011;23947;51.894;4.622;2022-07-29T09:06:25;5.53;;;1.00;;
38130;SDS011;23947;51.894;4.622;2022-07-29T09:08:58;3.58;;;1.00;;
38130;SDS011;23947;51.894;4.622;2022-07-29T09:11:27;5.90;;;1.15;;
38130;SDS011;23947;51.894;4.622;2022-07-29T09:13:53;5.25;;;1.38;;
38130;SDS011;23947;51.894;4.622;2022-07-29T09:16:19;11.43;;;1.40;;
38130;SDS011;23947;51.894;4.622;2022-07-29T09:18:45;6.13;;;1.25;;
38130;SDS011;23947;51.894;4.622;2022-07-29T09:21:12;5.45;;;1.33;;
38130;SDS011;23947;51.894;4.622;2022-07-29T09:24:05;5.75;;;1.17;;
38130;SDS011;23947;51.894;4.622;2022-07-29T09:26:44;7.13;;;1.17;;
38130;SDS011;23947;51.894;4.622;2022-07-29T09:29:12;4.47;;;1.30;;
38130;SDS011;23947;51.894;4.622;2022-07-29T09:34:06;3.70;;;0.70;;
38130;SDS011;23947;51.894;4.622;2022-07-29T09:36:39;4.78;;;1.00;;
38130;SDS011;23947;51.894;4.622;2022-07-29T09:39:09;5.88;;;0.82;;
38130;SDS011;23947;51.894;4.622;2022-07-29T09:41:44;5.75;;;1.00;;
38130;SDS011;23947;51.894;4.622;2022-07-29T09:44:11;5.85;;;1.00;;
38130;SDS011;23947;51.894;4.622;2022-07-29T09:46:36;6.75;;;0.90;;
38130;SDS011;23947;51.894;4.622;2022-07-29T09:49:06;6.18;;;1.10;;
38130;SDS011;23947;51.894;4.622;2022-07-29T09:51:33;4.47;;;0.82;;
38130;SDS011;23947;51.894;4.622;2022-07-29T09:53:59;4.45;;;0.85;;
38130;SDS011;23947;51.894;4.622;2022-07-29T09:56:49;5.75;;;1.13;;
38130;SDS011;23947;51.894;4.622;2022-07-29T09:59:14;7.93;;;0.80;;
38130;SDS011;23947;51.894;4.622;2022-07-29T10:03:51;5.80;;;0.82;;
38130;SDS011;23947;51.894;4.622;2022-07-29T10:06:18;4.80;;;0.80;;
38130;SDS011;23947;51.894;4.622;2022-07-29T10:08:43;5.80;;;0.68;;
38130;SDS011;23947;51.894;4.622;2022-07-29T10:11:13;7.07;;;0.60;;
38130;SDS011;23947;51.894;4.622;2022-07-29T10:13:41;5.25;;;0.80;;
38130;SDS011;23947;51.894;4.622;2022-07-29T10:16:08;5.63;;;0.75;;
38130;SDS011;23947;51.894;4.622;2022-07-29T10:18:34;6.43;;;0.85;;
38130;SDS011;23947;51.894;4.622;2022-07-29T10:21:00;4.82;;;0.90;;
38130;SDS011;23947;51.894;4.622;2022-07-29T10:23:30;6.40;;;0.93;;
38130;SDS011;23947;51.894;4.622;2022-07-29T10:25:56;5.40;;;1.00;;
38130;SDS011;23947;51.894;4.622;2022-07-29T10:28:22;3.53;;;0.60;;
38130;SDS011;23947;51.894;4.622;2022-07-29T10:30:52;5.70;;;0.90;;
38130;SDS011;23947;51.894;4.622;2022-07-29T10:44:23;8.13;;;0.80;;
38130;SDS011;23947;51.894;4.622;2022-07-29T10:46:51;4.93;;;1.00;;
38130;SDS011;23947;51.894;4.622;2022-07-29T10:49:19;7.75;;;1.27;;
38130;SDS011;23947;51.894;4.622;2022-07-29T10:57:17;5.88;;;0.85;;
38130;SDS011;23947;51.894;4.622;2022-07-29T10:59:47;6.32;;;0.77;;
38130;SDS011;23947;51.894;4.622;2022-07-29T11:05:13;6.75;;;0.90;;
38130;SDS011;23947;51.894;4.622;2022-07-29T11:13:52;5.30;;;0.80;;
38130;SDS011;23947;51.894;4.622;2022-07-29T11:16:20;4.78;;;1.08;;
38130;SDS011;23947;51.894;4.622;2022-07-29T11:21:38;5.53;;;0.70;;
38130;SDS011;23947;51.894;4.622;2022-07-29T11:24:12;5.25;;;0.60;;
38130;SDS011;23947;51.894;4.622;2022-07-29T11:26:42;3.75;;;0.70;;
38130;SDS011;23947;51.894;4.622;2022-07-29T11:29:20;5.65;;;0.73;;
38130;SDS011;23947;51.894;4.622;2022-07-29T11:31:50;5.65;;;0.60;;
38130;SDS011;23947;51.894;4.622;2022-07-29T11:34:24;4.60;;;0.50;;
38130;SDS011;23947;51.894;4.622;2022-07-29T11:39:39;3.83;;;0.60;;
38130;SDS011;23947;51.894;4.622;2022-07-29T11:47:25;5.05;;;0.60;;
38130;SDS011;23947;51.894;4.622;2022-07-29T11:49:54;7.15;;;0.70;;
38130;SDS011;23947;51.894;4.622;2022-07-29T11:52:21;8.27;;;0.70;;
38130;SDS011;23947;51.894;4.622;2022-07-29T11:54:47;4.90;;;0.77;;
38130;SDS011;23947;51.894;4.622;2022-07-29T11:57:17;5.72;;;0.60;;
38130;SDS011;23947;51.894;4.622;2022-07-29T11:59:45;3.92;;;0.60;;
38130;SDS011;23947;51.894;4.622;2022-07-29T12:02:12;4.90;;;0.70;;
38130;SDS011;23947;51.894;4.622;2022-07-29T12:04:51;6.55;;;0.85;;
38130;SDS011;23947;51.894;4.622;2022-07-29T12:07:17;7.25;;;0.75;;
38130;SDS011;23947;51.894;4.622;2022-07-29T12:09:49;10.60;;;0.60;;
38130;SDS011;23947;51.894;4.622;2022-07-29T12:12:16;6.28;;;0.70;;
38130;SDS011;23947;51.894;4.622;2022-07-29T12:14:42;3.55;;;0.60;;
38130;SDS011;23947;51.894;4.622;2022-07-29T12:17:27;8.05;;;0.82;;
38130;SDS011;23947;51.894;4.622;2022-07-29T12:19:58;6.00;;;0.75;;
38130;SDS011;23947;51.894;4.622;2022-07-29T12:22:35;5.13;;;0.68;;
38130;SDS011;23947;51.894;4.622;2022-07-29T12:25:05;7.68;;;0.70;;
38130;SDS011;23947;51.894;4.622;2022-07-29T12:27:31;6.63;;;0.68;;
38130;SDS011;23947;51.894;4.622;2022-07-29T12:32:39;4.90;;;0.60;;
38130;SDS011;23947;51.894;4.622;2022-07-29T12:35:15;5.15;;;0.68;;
38130;SDS011;23947;51.894;4.622;2022-07-29T12:37:44;4.40;;;0.60;;
38130;SDS011;23947;51.894;4.622;2022-07-29T12:40:13;4.47;;;0.60;;
38130;SDS011;23947;51.894;4.622;2022-07-29T12:45:34;5.38;;;0.60;;
38130;SDS011;23947;51.894;4.622;2022-07-29T12:48:00;3.95;;;0.70;;
38130;SDS011;23947;51.894;4.622;2022-07-29T12:50:25;5.65;;;0.90;;
38130;SDS011;23947;51.894;4.622;2022-07-29T12:52:51;10.00;;;0.82;;
38130;SDS011;23947;51.894;4.622;2022-07-29T12:55:37;4.57;;;1.23;;
38130;SDS011;23947;51.894;4.622;2022-07-29T12:58:03;6.82;;;1.00;;
38130;SDS011;23947;51.894;4.622;2022-07-29T13:00:28;6.25;;;0.70;;
38130;SDS011;23947;51.894;4.622;2022-07-29T13:02:58;4.95;;;1.00;;
38130;SDS011;23947;51.894;4.622;2022-07-29T13:05:44;8.68;;;1.05;;
38130;SDS011;23947;51.894;4.622;2022-07-29T13:08:14;4.30;;;0.80;;
38130;SDS011;23947;51.894;4.622;2022-07-29T13:10:43;6.18;;;0.80;;
38130;SDS011;23947;51.894;4.622;2022-07-29T13:13:10;8.82;;;0.80;;
38130;SDS011;23947;51.894;4.622;2022-07-29T13:15:37;3.85;;;0.60;;
38130;SDS011;23947;51.894;4.622;2022-07-29T13:18:05;8.15;;;0.70;;
38130;SDS011;23947;51.894;4.622;2022-07-29T13:20:51;5.75;;;0.77;;
38130;SDS011;23947;51.894;4.622;2022-07-29T13:23:16;6.50;;;0.70;;
38130;SDS011;23947;51.894;4.622;2022-07-29T13:25:42;4.53;;;0.85;;
38130;SDS011;23947;51.894;4.622;2022-07-29T13:28:08;5.57;;;0.90;;
38130;SDS011;23947;51.894;4.622;2022-07-29T13:30:33;5.40;;;0.90;;
38130;SDS011;23947;51.894;4.622;2022-07-29T13:32:59;2.83;;;0.60;;
38130;SDS011;23947;51.894;4.622;2022-07-29T13:35:25;5.93;;;0.82;;
38130;SDS011;23947;51.894;4.622;2022-07-29T13:37:50;6.28;;;0.77;;
38130;SDS011;23947;51.894;4.622;2022-07-29T13:40:17;5.30;;;0.70;;
38130;SDS011;23947;51.894;4.622;2022-07-29T13:42:42;5.75;;;0.70;;
38130;SDS011;23947;51.894;4.622;2022-07-29T13:45:08;11.18;;;0.80;;
38130;SDS011;23947;51.894;4.622;2022-07-29T13:47:35;4.20;;;0.60;;
38130;SDS011;23947;51.894;4.622;2022-07-29T13:50:01;3.60;;;0.60;;
38130;SDS011;23947;51.894;4.622;2022-07-29T13:52:29;3.95;;;0.50;;
38130;SDS011;23947;51.894;4.622;2022-07-29T13:54:55;5.18;;;0.60;;
38130;SDS011;23947;51.894;4.622;2022-07-29T13:57:21;6.20;;;0.80;;
38130;SDS011;23947;51.894;4.622;2022-07-29T13:59:46;5.65;;;0.70;;
38130;SDS011;23947;51.894;4.622;2022-07-29T14:02:12;5.53;;;0.77;;
38130;SDS011;23947;51.894;4.622;2022-07-29T14:04:38;5.72;;;0.98;;
38130;SDS011;23947;51.894;4.622;2022-07-29T14:07:04;5.60;;;0.75;;
38130;SDS011;23947;51.894;4.622;2022-07-29T14:09:30;7.38;;;0.80;;
38130;SDS011;23947;51.894;4.622;2022-07-29T14:11:56;5.28;;;0.80;;
38130;SDS011;23947;51.894;4.622;2022-07-29T14:14:22;4.18;;;0.90;;
38130;SDS011;23947;51.894;4.622;2022-07-29T14:16:47;6.35;;;0.65;;
38130;SDS011;23947;51.894;4.622;2022-07-29T14:19:13;5.78;;;0.63;;
38130;SDS011;23947;51.894;4.622;2022-07-29T14:21:39;5.32;;;0.70;;
38130;SDS011;23947;51.894;4.622;2022-07-29T14:24:05;5.45;;;0.80;;
38130;SDS011;23947;51.894;4.622;2022-07-29T14:26:31;4.70;;;0.55;;
38130;SDS011;23947;51.894;4.622;2022-07-29T14:28:57;7.55;;;0.93;;
38130;SDS011;23947;51.894;4.622;2022-07-29T14:31:22;6.03;;;0.90;;
38130;SDS011;23947;51.894;4.622;2022-07-29T14:33:48;4.32;;;0.77;;
38130;SDS011;23947;51.894;4.622;2022-07-29T14:36:14;8.52;;;0.77;;
38130;SDS011;23947;51.894;4.622;2022-07-29T14:38:40;3.13;;;0.75;;
38130;SDS011;23947;51.894;4.622;2022-07-29T14:41:05;5.35;;;0.90;;
38130;SDS011;23947;51.894;4.622;2022-07-29T14:43:32;5.72;;;0.60;;
38130;SDS011;23947;51.894;4.622;2022-07-29T14:45:59;7.65;;;0.93;;
38130;SDS011;23947;51.894;4.622;2022-07-29T14:48:25;6.72;;;0.70;;
38130;SDS011;23947;51.894;4.622;2022-07-29T14:50:50;7.95;;;0.95;;
38130;SDS011;23947;51.894;4.622;2022-07-29T14:53:16;5.50;;;0.60;;
38130;SDS011;23947;51.894;4.622;2022-07-29T14:55:41;6.95;;;0.70;;
38130;SDS011;23947;51.894;4.622;2022-07-29T14:58:07;6.10;;;0.70;;
38130;SDS011;23947;51.894;4.622;2022-07-29T15:00:34;8.38;;;0.95;;
38130;SDS011;23947;51.894;4.622;2022-07-29T15:03:01;5.50;;;0.88;;
38130;SDS011;23947;51.894;4.622;2022-07-29T15:05:27;5.15;;;0.80;;
38130;SDS011;23947;51.894;4.622;2022-07-29T15:07:53;6.22;;;0.60;;
38130;SDS011;23947;51.894;4.622;2022-07-29T15:10:19;6.93;;;0.80;;
38130;SDS011;23947;51.894;4.622;2022-07-29T15:12:45;4.78;;;0.60;;
38130;SDS011;23947;51.894;4.622;2022-07-29T15:15:11;6.55;;;0.80;;
38130;SDS011;23947;51.894;4.622;2022-07-29T15:17:36;6.32;;;0.68;;
38130;SDS011;23947;51.894;4.622;2022-07-29T15:20:02;7.55;;;0.80;;
38130;SDS011;23947;51.894;4.622;2022-07-29T15:22:31;5.03;;;0.50;;
38130;SDS011;23947;51.894;4.622;2022-07-29T15:24:56;5.32;;;0.80;;
38130;SDS011;23947;51.894;4.622;2022-07-29T15:27:22;5.47;;;0.80;;
38130;SDS011;23947;51.894;4.622;2022-07-29T15:29:48;4.43;;;0.65;;
38130;SDS011;23947;51.894;4.622;2022-07-29T15:32:13;4.13;;;0.70;;
38130;SDS011;23947;51.894;4.622;2022-07-29T15:34:39;4.80;;;0.57;;
38130;SDS011;23947;51.894;4.622;2022-07-29T15:37:05;4.85;;;0.90;;
38130;SDS011;23947;51.894;4.622;2022-07-29T15:39:31;5.20;;;0.50;;
38130;SDS011;23947;51.894;4.622;2022-07-29T15:41:56;6.78;;;0.63;;
38130;SDS011;23947;51.894;4.622;2022-07-29T15:44:24;5.85;;;0.65;;
38130;SDS011;23947;51.894;4.622;2022-07-29T15:46:49;4.45;;;0.60;;
38130;SDS011;23947;51.894;4.622;2022-07-29T15:49:27;4.28;;;0.73;;
38130;SDS011;23947;51.894;4.622;2022-07-29T15:52:04;6.03;;;0.75;;
38130;SDS011;23947;51.894;4.622;2022-07-29T15:54:31;5.13;;;0.60;;
38130;SDS011;23947;51.894;4.622;2022-07-29T15:56:58;4.50;;;0.60;;
38130;SDS011;23947;51.894;4.622;2022-07-29T15:59:24;5.85;;;0.85;;
38130;SDS011;23947;51.894;4.622;2022-07-29T16:01:50;3.88;;;0.60;;
38130;SDS011;23947;51.894;4.622;2022-07-29T16:04:15;5.38;;;0.80;;
38130;SDS011;23947;51.894;4.622;2022-07-29T16:06:42;5.63;;;0.70;;
38130;SDS011;23947;51.894;4.622;2022-07-29T16:09:08;3.53;;;0.70;;